Cleardale, Canada
Current Conditions -  °F | °C
As of 9:00 PM on Monday 20 Oct 2014 (Local Time) from CYXJ Reporting Station
Few Clouds Few Clouds  
Wind Chill: 43°   Ceiling: Unl
Heat Index: 48°   Visibility: 15mi
Dew Point: 37°   Wind: 12mph
Humidity: 66%   Direction: 220°SW
Pressure: 29.49"   Gusts: 18mph
Location:  56.33°N, 119.58°W
Report Text: CYXJ 210300Z 22010G16KT 15SM FEW220 09/03 A2949 RMK CI1 SLP005 DENSITY ALT 2500FT
Loading
Personal Weather Stations






























Interactive Weather Map
Tropical Storm Tracking
New forecast layout! Learn more

10-Day Weather Forecast

Advertisements
Track Severe Weather on mobile